• Join FlightAware (Why Join?)
  • Login
  • US Flag 
02:07PM EST


 

Airport Tracker/Info


-or-


 

Live Flight TrackerFlight Track Log ✈ N101MA ✈ 09-Jul-2013 ✈ KOXB - KMPO

Flight Track Log - Related Links

Times and Time Zones

All times are in EDT time to prevent confusion due to time zone crossing. See the N101MA flight status page for this flight to view local times or setup timezone preferences in your user account.

Time Position Orientation Groundspeed Altitude Reporting Facility
EDT Latitude Longitude Course Direction KTS MPH feet Rate Location/Type
08:48PM 38.3639 -75.0939 342° North 130 150 2,400  Level Washington Center
08:49PM 38.3828 -75.1017 342° North 137 158 3,000 840 Climbing Washington Center
08:50PM 38.4203 -75.1200 339° North 137 158 3,800 180 Climbing Washington Center
08:52PM 38.4901 -75.1911 345° North  Level FlightAware Approximate
08:59PM 38.7784 -75.3149 342° North  Level FlightAware Approximate
09:00PM 38.8196 -75.3323 342° North  Level FlightAware Approximate
09:01PM 38.8609 -75.3496 342° North  Level FlightAware Approximate
09:02PM 38.9022 -75.3670 342° North  Level FlightAware Approximate
09:03PM 38.9435 -75.3844 342° North  Level FlightAware Approximate
09:04PM 38.9848 -75.4018 342° North  Level FlightAware Approximate
09:05PM 39.0261 -75.4192 342° North  Level FlightAware Approximate
09:06PM 39.0674 -75.4367 342° North  Level FlightAware Approximate
09:07PM 39.1087 -75.4542 342° North  Level FlightAware Approximate
09:07PM 39.1667 -75.5167 348° North 177 204 7,000  Level Philadelphia TRACON
09:08PM 39.1499 -75.4717 342° North  Level FlightAware Approximate
09:08PM 39.2000 -75.5167 360° North 169 194 7,000  Level Philadelphia TRACON
09:09PM 39.1912 -75.4892 342° North  Level FlightAware Approximate
09:09PM 39.2500 -75.5333 346° North 168 193 7,000  Level Philadelphia TRACON
09:10PM 39.2330 -75.5041 349° North  Level FlightAware Approximate
09:10PM 39.3000 -75.5333 360° North 172 198 7,000  Level Philadelphia TRACON
09:11PM 39.2757 -75.5147 349° North  Level FlightAware Approximate
09:11PM 39.3333 -75.5500 339° North 174 200 7,000  Level Philadelphia TRACON
09:12PM 39.3181 -75.5266 348° North  Level FlightAware Approximate
09:12PM 39.3833 -75.5500 360° North 173 199 7,000  Level Philadelphia TRACON
09:13PM 39.3605 -75.5387 348° North  Level FlightAware Approximate
09:13PM 39.4333 -75.5667 346° North 176 203 7,000  Level Philadelphia TRACON
09:14PM 39.4833 -75.5667 360° North 174 200 7,000  Level Philadelphia TRACON
09:15PM 39.5333 -75.5833 346° North 175 201 7,000  Level Philadelphia TRACON
09:16PM 39.5667 -75.5833 360° North 176 203 7,000  Level Philadelphia TRACON
09:17PM 39.6167 -75.6000 346° North 178 205 7,000  Level Philadelphia TRACON
09:18PM 39.6667 -75.6000 360° North 176 203 7,000  Level Philadelphia TRACON
09:19PM 39.7167 -75.6167 346° North 175 201 7,000  Level Philadelphia TRACON
09:20PM 39.7667 -75.6333 346° North 175 201 7,000  Level Philadelphia TRACON
09:21PM 39.8167 -75.6333 360° North 176 203 7,000  Level Philadelphia TRACON
09:22PM 39.8667 -75.6500 346° North 174 200 7,000  Level Philadelphia TRACON
09:23PM 39.9000 -75.6667 339° North 174 200 7,000  Level Philadelphia TRACON
09:24PM 39.9500 -75.6500 14° North 184 212 7,000  Level Philadelphia TRACON
09:25PM 40.0000 -75.6333 14° North 183 211 7,000  Level Philadelphia TRACON
09:26PM 40.0500 -75.6167 14° North 180 207 7,000  Level Philadelphia TRACON
09:28PM 40.1331 -75.5835 17° North  Level FlightAware Approximate
09:35PM 40.4517 -75.6354 342° North  Level FlightAware Approximate
09:36PM 40.4968 -75.6542 342° North  Level FlightAware Approximate
09:37PM 40.5420 -75.6730 342° North  Level FlightAware Approximate
09:38PM 40.5806 -75.6617 50° Northeast  Level FlightAware Approximate
09:39PM 40.6113 -75.6141 50° Northeast  Level FlightAware Approximate
09:40PM 40.6420 -75.5664 50° Northeast  Level FlightAware Approximate
09:41PM 40.6726 -75.5187 50° Northeast  Level FlightAware Approximate
09:42PM 40.7032 -75.4710 50° Northeast  Level FlightAware Approximate
09:43PM 40.7433 -75.4500 North  Level FlightAware Approximate
09:44PM 40.7907 -75.4500 North  Level FlightAware Approximate
09:45PM 40.8381 -75.4500 North  Level FlightAware Approximate
09:46PM 40.8855 -75.4500 North  Level FlightAware Approximate
09:47PM 40.9329 -75.4500 North  Level FlightAware Approximate
09:48PM 40.9803 -75.4500 North  Level FlightAware Approximate
09:49PM 41.0277 -75.4500 North  Level FlightAware Approximate
09:50PM 41.0728 -75.4667 North  Level FlightAware Approximate
09:51PM 41.1203 -75.4667 North  Level FlightAware Approximate
09:52PM 41.1677 -75.4667 North  Level FlightAware Approximate
09:53PM 41.2151 -75.4667 North  Level FlightAware Approximate
09:54PM 41.2395 -75.4577 147° Southeast  Level FlightAware Approximate
09:55PM 41.1997 -75.4235 147° Southeast  Level FlightAware Approximate
09:56PM 41.1598 -75.3893 147° Southeast  Level FlightAware Approximate
09:57PM 41.1377 -75.3801 147° Southeast  Level Estimated
09:58PM 41.1377 -75.3801 147° Southeast  Level Estimated
09:59PM 41.1377 -75.3801 147° Southeast  Level Estimated
10:00PM 41.1377 -75.3801 147° Southeast  Level Estimated
10:01PM 41.1377 -75.3801 147° Southeast  Level Estimated
10:02PM 41.1377 -75.3801 147° Southeast  Level Estimated